Terminal Aerodrome Forecast
Issued by NWS Hastings, NE

Home | Current Version | Previous Version | Text Only | Print | Product List | Glossary On
Versions: 1 2 3 4 5 6 7 8 9 10 11 12 13 14 15 16 17 18 19 20
784
FTUS45 KGID 271721
TAFEAR
TAF
KEAR 271721Z 2718/2818 VRB03KT P6SM BKN012
     FM272000 VRB05KT P6SM SCT015
     FM272300 11007KT P6SM FEW025
     FM280200 11007KT P6SM FEW200
     FM280800 12006KT P6SM BKN035
     FM280900 11006KT 4SM BR BKN015
     FM281200 11006KT P6SM BKN015
     FM281600 11009KT P6SM OVC008
      AMD LTD TO CLD VIS AND WIND=

USA.gov is the U.S. government's official web portal to all federal, state and local government web resources and services.